Time;durP1;ratioP1;P1;durP2;ratioP2;P2;SDS_P1;SDS_P2;PMS_P1;PMS_P2;Temp;Humidity;BMP_temperature;BMP_pressure;BME280_temperature;BME280_humidity;BME280_pressure;Samples;Min_cycle;Max_cycle;Signal;HPM_P1;HPM_P2
2023/01/26 00:00:49;;;;;;;;;61.50;49.25;;;;;4.80;100.00;102133.38;5084249;27;46200;-76
2023/01/26 00:03:15;;;;;;;;;62.50;47.75;;;;;4.77;100.00;102123.03;5101136;27;45302;-76
2023/01/26 00:05:41;;;;;;;;;61.50;50.00;;;;;4.83;100.00;102114.72;5102370;27;45844;-77
2023/01/26 00:08:07;;;;;;;;;57.75;46.25;;;;;4.79;100.00;102119.34;5097191;27;47088;-77
2023/01/26 00:10:35;;;;;;;;;58.25;45.25;;;;;4.82;100.00;102109.56;5102251;27;45314;-76
2023/01/26 00:13:01;;;;;;;;;57.25;45.00;;;;;4.82;100.00;102115.66;5083539;27;45267;-77
2023/01/26 00:15:26;;;;;;;;;65.50;50.00;;;;;4.84;100.00;102116.41;5102340;27;45286;-76
2023/01/26 00:17:51;;;;;;;;;51.25;44.00;;;;;4.83;100.00;102093.66;5102100;27;45264;-76
2023/01/26 00:20:17;;;;;;;;;67.25;51.25;;;;;4.84;100.00;102100.59;5102506;27;45309;-77
2023/01/26 00:22:42;;;;;;;;;62.50;48.25;;;;;4.84;100.00;102102.38;5083889;27;45453;-76
2023/01/26 00:25:08;;;;;;;;;58.50;46.75;;;;;4.85;100.00;102096.19;5083397;27;45684;-76
2023/01/26 00:27:33;;;;;;;;;55.25;44.75;;;;;4.89;100.00;102098.50;5101905;27;45609;-76
2023/01/26 00:29:59;;;;;;;;;57.50;47.75;;;;;4.91;100.00;102093.13;5101980;27;45208;-76
2023/01/26 00:32:24;;;;;;;;;61.50;47.50;;;;;4.93;100.00;102086.81;5083585;27;45619;-76
2023/01/26 00:34:49;;;;;;;;;58.50;46.25;;;;;4.96;100.00;102085.75;5102224;27;45284;-76
2023/01/26 00:37:15;;;;;;;;;55.75;45.00;;;;;5.04;100.00;102090.50;5101892;27;45250;-76
2023/01/26 00:39:40;;;;;;;;;59.50;48.75;;;;;5.01;100.00;102067.84;5102054;27;45321;-76
2023/01/26 00:42:05;;;;;;;;;63.00;50.00;;;;;5.05;100.00;102065.84;5083406;27;45329;-76
2023/01/26 00:44:31;;;;;;;;;61.50;48.50;;;;;5.02;100.00;102066.91;5101664;27;45442;-76
2023/01/26 00:46:57;;;;;;;;;63.75;48.25;;;;;5.05;100.00;102064.06;5083290;27;47566;-76
2023/01/26 00:49:22;;;;;;;;;62.00;48.25;;;;;5.07;100.00;102063.94;5101926;27;45426;-77
2023/01/26 00:51:48;;;;;;;;;58.25;46.75;;;;;5.05;100.00;102057.94;5083261;27;45448;-77
2023/01/26 00:54:13;;;;;;;;;57.00;45.00;;;;;4.97;100.00;102055.81;5101873;27;45590;-76
2023/01/26 00:56:38;;;;;;;;;60.00;47.50;;;;;5.00;100.00;102037.16;5083096;27;46935;-77
2023/01/26 00:59:05;;;;;;;;;57.25;48.25;;;;;4.97;100.00;102028.63;5101417;27;45344;-76
2023/01/26 01:01:30;;;;;;;;;64.50;49.25;;;;;4.95;100.00;102036.66;5100472;27;45480;-76
2023/01/26 01:03:56;;;;;;;;;56.25;45.50;;;;;4.94;100.00;102042.88;5082844;27;46143;-77
2023/01/26 01:06:21;;;;;;;;;52.00;43.25;;;;;4.96;100.00;102037.47;5101071;27;45531;-76
2023/01/26 01:08:46;;;;;;;;;61.75;45.25;;;;;5.03;100.00;102036.13;5083337;27;45804;-76
2023/01/26 01:11:12;;;;;;;;;57.50;47.00;;;;;4.97;100.00;102026.81;5101266;27;45210;-77
2023/01/26 01:13:38;;;;;;;;;60.00;48.00;;;;;4.98;100.00;102031.16;5083072;27;47119;-76
2023/01/26 01:16:05;;;;;;;;;58.75;47.75;;;;;5.06;100.00;102043.81;5082738;27;47647;-76
2023/01/26 01:18:31;;;;;;;;;50.00;44.50;;;;;5.03;100.00;102036.94;5101420;27;45365;-76
2023/01/26 01:20:56;;;;;;;;;61.00;47.75;;;;;5.01;100.00;102022.19;5101320;27;45222;-78
2023/01/26 01:23:21;;;;;;;;;61.50;47.50;;;;;5.07;100.00;102028.84;5101311;27;45311;-76
2023/01/26 01:25:55;;;;;;;;;62.75;48.25;;;;;5.04;100.00;102022.84;5101002;27;45409;-76
2023/01/26 01:28:20;;;;;;;;;59.75;45.25;;;;;5.10;100.00;102026.84;5101083;27;45346;-76
2023/01/26 01:30:46;;;;;;;;;55.75;44.75;;;;;5.09;100.00;102026.94;5099751;27;45507;-76
2023/01/26 01:33:11;;;;;;;;;57.50;48.00;;;;;5.10;100.00;102018.94;5101088;27;45368;-76
2023/01/26 01:35:36;;;;;;;;;59.00;46.00;;;;;5.11;100.00;102007.44;5100928;27;45428;-76
2023/01/26 01:38:02;;;;;;;;;58.00;44.50;;;;;5.15;100.00;102006.25;5101373;27;45386;-76
2023/01/26 01:40:27;;;;;;;;;62.75;48.50;;;;;5.16;100.00;102007.13;5100812;27;45311;-76
2023/01/26 01:42:52;;;;;;;;;64.50;49.25;;;;;5.18;100.00;102016.59;5082624;27;46461;-76
2023/01/26 01:45:43;;;;;;;;;55.00;44.00;;;;;5.20;100.00;102019.13;5100863;27;45385;-76
2023/01/26 01:48:38;;;;;;;;;61.00;47.75;;;;;5.23;100.00;102018.06;5100797;27;45291;-76
2023/01/26 01:51:11;;;;;;;;;60.00;50.00;;;;;5.23;100.00;102023.34;5089550;27;45299;-76
2023/01/26 01:53:39;;;;;;;;;55.50;43.25;;;;;5.20;100.00;102010.41;5082153;27;46349;-76
2023/01/26 01:56:11;;;;;;;;;57.25;45.50;;;;;5.23;100.00;102010.16;5100288;27;46429;-76
2023/01/26 01:58:41;;;;;;;;;58.25;46.00;;;;;5.26;100.00;102012.56;5100246;27;45341;-76
2023/01/26 02:01:08;;;;;;;;;55.25;42.25;;;;;5.22;100.00;102011.97;5082482;27;45503;-76
2023/01/26 02:03:35;;;;;;;;;52.75;40.75;;;;;5.18;100.00;102002.59;5081964;27;45343;-76
2023/01/26 02:06:07;;;;;;;;;54.50;42.25;;;;;5.22;100.00;102011.13;5100145;27;46382;-76
2023/01/26 02:08:37;;;;;;;;;50.75;39.00;;;;;5.19;100.00;102001.63;5086861;27;45358;-76
2023/01/26 02:11:16;;;;;;;;;62.50;43.50;;;;;5.18;100.00;102005.22;5081837;27;45523;-76
2023/01/26 02:13:45;;;;;;;;;59.25;47.50;;;;;5.18;100.00;102000.78;5099733;27;45496;-76
2023/01/26 02:16:10;;;;;;;;;56.25;43.50;;;;;5.21;100.00;102004.16;5081750;27;47401;-76
2023/01/26 02:18:35;;;;;;;;;56.25;45.25;;;;;5.18;100.00;102000.78;5100415;27;45266;-76
2023/01/26 02:21:07;;;;;;;;;49.00;42.00;;;;;5.23;100.00;102002.25;5100586;27;45293;-76
2023/01/26 02:23:44;;;;;;;;;56.00;43.25;;;;;5.21;100.00;101998.88;5081938;27;46224;-76
2023/01/26 02:26:14;;;;;;;;;61.25;44.25;;;;;5.22;100.00;102009.31;5081387;27;47073;-76
2023/01/26 02:28:41;;;;;;;;;60.50;47.25;;;;;5.23;100.00;102003.09;5099998;27;45298;-75
2023/01/26 02:31:08;;;;;;;;;53.50;42.00;;;;;5.26;100.00;102012.56;5100020;27;45467;-76
2023/01/26 02:33:34;;;;;;;;;51.50;44.75;;;;;5.21;100.00;102004.16;5100080;27;45628;-76
2023/01/26 02:36:01;;;;;;;;;56.00;40.75;;;;;5.21;100.00;101999.72;5099622;27;46585;-76
2023/01/26 02:38:35;;;;;;;;;55.25;42.25;;;;;5.16;100.00;101988.66;5100229;27;45318;-76
2023/01/26 02:41:08;;;;;;;;;50.75;40.00;;;;;5.16;100.00;101988.66;5087119;27;45398;-76
2023/01/26 02:43:34;;;;;;;;;51.25;43.75;;;;;5.14;100.00;101991.41;5081316;27;46161;-76
2023/01/26 02:46:00;;;;;;;;;55.75;41.25;;;;;5.14;100.00;101985.28;5081129;27;47108;-77
2023/01/26 02:51:09;;;;;;;;;61.00;47.75;;;;;5.15;100.00;101984.34;5099979;27;45525;-76
2023/01/26 02:53:35;;;;;;;;;54.50;44.50;;;;;5.17;100.00;101980.66;5081353;27;46567;-76
2023/01/26 02:56:00;;;;;;;;;53.25;42.50;;;;;5.13;100.00;101971.28;5081090;27;47372;-76
2023/01/26 02:58:26;;;;;;;;;59.25;46.50;;;;;5.11;100.00;101978.44;5081061;27;45983;-76
2023/01/26 03:00:51;;;;;;;;;55.00;45.00;;;;;5.13;100.00;101975.69;5081347;27;45449;-77
2023/01/26 03:03:40;;;;;;;;;62.25;46.75;;;;;5.38;100.00;101974.81;5081123;27;46227;-76
2023/01/26 03:06:09;;;;;;;;;61.00;48.75;;;;;5.57;100.00;101968.22;5099432;27;46034;-76
2023/01/26 03:08:34;;;;;;;;;49.75;41.25;;;;;5.61;100.00;101971.47;5081754;27;45457;-76
2023/01/26 03:11:00;;;;;;;;;55.50;43.50;;;;;5.34;100.00;101969.84;5092995;27;45283;-76
2023/01/26 03:13:25;;;;;;;;;54.00;42.75;;;;;5.21;100.00;101969.91;5099541;27;45220;-77
2023/01/26 03:15:53;;;;;;;;;54.25;42.25;;;;;5.20;100.00;101973.50;5099476;27;45303;-77
2023/01/26 03:29:28;;;;;;;;;54.50;43.50;;;;;5.23;100.00;101957.44;5102785;27;45208;-76
2023/01/26 03:31:53;;;;;;;;;50.25;41.25;;;;;5.21;100.00;101952.25;5102910;27;45334;-76
2023/01/26 03:34:19;;;;;;;;;52.00;41.75;;;;;5.26;100.00;101957.22;5102967;27;45481;-76
2023/01/26 03:36:45;;;;;;;;;56.00;42.50;;;;;5.26;100.00;101958.06;5089184;27;47273;-77
2023/01/26 03:41:06;;;;;;;;;56.50;44.25;;;;;5.25;100.00;101960.81;5101911;27;45397;-76
2023/01/26 03:58:21;;;;;;;;;45.25;37.75;;;;;5.10;100.00;101931.97;5102109;27;45881;-77
2023/01/26 04:00:48;;;;;;;;;56.25;43.50;;;;;5.12;100.00;101935.31;5102621;27;45287;-76
2023/01/26 04:08:43;;;;;;;;;54.25;42.25;;;;;5.15;100.00;101947.44;5102390;27;45311;-76
2023/01/26 04:11:09;;;;;;;;;49.50;41.50;;;;;5.11;100.00;101941.53;5083456;27;45665;-76
2023/01/26 04:21:46;;;;;;;;;39.50;34.25;;;;;5.15;100.00;101936.91;5090905;27;45275;-76
2023/01/26 04:24:14;;;;;;;;;50.25;41.00;;;;;5.17;100.00;101938.47;5101774;27;45547;-76
2023/01/26 04:26:41;;;;;;;;;50.25;40.50;;;;;5.17;100.00;101941.13;5102066;27;45356;-76
2023/01/26 04:29:12;;;;;;;;;49.25;40.00;;;;;5.17;100.00;101941.13;5101324;27;46153;-76
2023/01/26 04:31:39;;;;;;;;;46.00;39.50;;;;;5.19;100.00;101946.28;5101951;27;45315;-76
2023/01/26 04:34:05;;;;;;;;;51.25;39.75;;;;;5.18;100.00;101947.25;5101957;27;45497;-76
2023/01/26 04:36:31;;;;;;;;;52.25;40.75;;;;;5.11;100.00;101941.53;5101642;27;45399;-76
2023/01/26 04:38:57;;;;;;;;;44.75;39.00;;;;;5.11;100.00;101938.91;5101878;27;45433;-76
2023/01/26 04:41:23;;;;;;;;;47.25;37.25;;;;;5.18;100.00;101942.78;5083097;27;46132;-76
2023/01/26 04:43:48;;;;;;;;;50.75;41.25;;;;;5.15;100.00;101937.72;5101771;27;45364;-76
2023/01/26 04:46:14;;;;;;;;;41.00;39.00;;;;;5.18;100.00;101941.97;5083371;27;46147;-76
2023/01/26 04:48:40;;;;;;;;;51.50;43.00;;;;;5.23;100.00;101945.09;5101399;27;46560;-76
2023/01/26 04:51:10;;;;;;;;;37.00;33.00;;;;;5.25;100.00;101937.09;5101912;27;45280;-76
2023/01/26 04:53:35;;;;;;;;;52.00;41.50;;;;;5.22;100.00;101926.75;5083307;27;45295;-76
2023/01/26 04:56:01;;;;;;;;;43.50;37.75;;;;;5.29;100.00;101930.63;5101541;27;45299;-76
2023/01/26 04:58:26;;;;;;;;;55.75;44.25;;;;;5.31;100.00;101928.75;5101373;27;45492;-76
2023/01/26 05:00:56;;;;;;;;;50.25;42.00;;;;;5.32;100.00;101924.31;5101876;27;45323;-76
2023/01/26 05:03:23;;;;;;;;;51.50;41.50;;;;;5.29;100.00;101925.38;5082995;27;45290;-76
2023/01/26 05:05:51;;;;;;;;;53.75;38.00;;;;;5.31;100.00;101931.38;5101555;27;45201;-76
2023/01/26 05:08:18;;;;;;;;;48.25;41.50;;;;;5.28;100.00;101923.69;5082861;27;47167;-75
2023/01/26 05:10:44;;;;;;;;;48.00;41.00;;;;;5.24;100.00;101917.78;5082774;27;45348;-76
2023/01/26 05:13:09;;;;;;;;;45.50;37.25;;;;;5.29;100.00;101922.72;5101098;27;45941;-76
2023/01/26 05:15:35;;;;;;;;;46.25;39.50;;;;;5.22;100.00;101917.06;5101579;27;45318;-76
2023/01/26 05:18:01;;;;;;;;;52.75;38.25;;;;;5.32;100.00;101926.97;5082715;27;47623;-76
2023/01/26 05:20:27;;;;;;;;;44.50;36.75;;;;;5.35;100.00;101926.72;5101371;27;45297;-76
2023/01/26 05:22:53;;;;;;;;;47.00;40.00;;;;;5.33;100.00;101924.22;5101096;27;45248;-76
2023/01/26 05:25:18;;;;;;;;;39.75;34.00;;;;;5.34;100.00;101928.53;5082572;27;46092;-76
2023/01/26 05:27:44;;;;;;;;;48.00;40.50;;;;;5.30;100.00;101937.63;5101049;27;45545;-76
2023/01/26 05:30:10;;;;;;;;;50.00;40.50;;;;;5.29;100.00;101935.91;5082575;27;45334;-76
2023/01/26 05:32:36;;;;;;;;;42.25;37.00;;;;;5.29;100.00;101928.84;5082594;27;45611;-76
2023/01/26 05:35:02;;;;;;;;;57.00;42.00;;;;;5.33;100.00;101934.75;5100909;27;45524;-76
2023/01/26 05:37:28;;;;;;;;;54.50;43.50;;;;;5.34;100.00;101930.31;5100784;27;46303;-76
2023/01/26 05:39:53;;;;;;;;;47.75;41.25;;;;;5.39;100.00;101929.03;5100632;27;45316;-76
2023/01/26 05:42:19;;;;;;;;;54.75;44.00;;;;;5.37;100.00;101923.03;5082479;27;45279;-76
2023/01/26 05:44:44;;;;;;;;;52.50;40.25;;;;;5.38;100.00;101922.06;5100768;27;45354;-76
2023/01/26 05:47:10;;;;;;;;;52.25;42.00;;;;;5.40;100.00;101924.59;5100528;27;45922;-77
2023/01/26 05:49:41;;;;;;;;;40.50;38.75;;;;;5.35;100.00;101924.06;5100292;27;45285;-76
2023/01/26 05:52:18;;;;;;;;;57.00;43.25;;;;;5.38;100.00;101929.97;5100785;27;45409;-76
2023/01/26 05:54:44;;;;;;;;;53.25;43.25;;;;;5.41;100.00;101927.13;5100538;27;45306;-76
2023/01/26 05:57:10;;;;;;;;;47.25;40.75;;;;;5.47;100.00;101935.53;5100463;27;46130;-76
2023/01/26 05:59:36;;;;;;;;;55.50;44.50;;;;;5.47;100.00;101930.25;5100710;27;45361;-76
2023/01/26 06:02:01;;;;;;;;;48.00;40.50;;;;;5.47;100.00;101938.16;5100671;27;45161;-76
2023/01/26 06:04:27;;;;;;;;;51.00;40.00;;;;;5.50;100.00;101936.16;5100657;27;45360;-76
2023/01/26 06:06:57;;;;;;;;;53.00;42.00;;;;;5.53;100.00;101933.31;5100328;27;45196;-77
2023/01/26 06:09:23;;;;;;;;;50.50;41.00;;;;;5.45;100.00;101925.13;5081821;27;45332;-76
2023/01/26 06:11:49;;;;;;;;;53.50;41.25;;;;;5.47;100.00;101932.91;5081921;27;45396;-76
2023/01/26 06:14:15;;;;;;;;;56.00;41.75;;;;;5.43;100.00;101941.06;5100450;27;45302;-76
2023/01/26 06:16:40;;;;;;;;;48.75;42.25;;;;;5.46;100.00;101936.50;5100424;27;45272;-76
2023/01/26 06:19:06;;;;;;;;;48.00;40.25;;;;;5.45;100.00;101934.81;5100394;27;45662;-76
2023/01/26 06:21:31;;;;;;;;;50.25;41.25;;;;;5.48;100.00;101938.06;5100471;27;45334;-76
2023/01/26 06:23:57;;;;;;;;;54.25;43.50;;;;;5.47;100.00;101932.91;5100451;27;45352;-76
2023/01/26 06:26:23;;;;;;;;;49.75;40.75;;;;;5.46;100.00;101929.44;5100023;27;46142;-76
2023/01/26 06:28:49;;;;;;;;;56.50;42.75;;;;;5.48;100.00;101926.69;5081664;27;45610;-76
2023/01/26 06:31:14;;;;;;;;;57.25;44.50;;;;;5.52;100.00;101933.41;5081998;27;45336;-76
2023/01/26 06:33:39;;;;;;;;;46.00;40.25;;;;;5.53;100.00;101933.31;5100373;27;45302;-76
2023/01/26 06:36:10;;;;;;;;;60.00;43.00;;;;;5.47;100.00;101935.53;5086487;27;46044;-76
2023/01/26 06:38:37;;;;;;;;;52.00;44.25;;;;;5.38;100.00;101929.97;5081529;27;46369;-76
2023/01/26 06:41:05;;;;;;;;;55.25;41.50;;;;;5.39;100.00;101923.75;5100089;27;45339;-76
2023/01/26 06:43:34;;;;;;;;;55.75;41.25;;;;;5.41;100.00;101932.41;5099727;27;45454;-76
2023/01/26 06:46:01;;;;;;;;;50.50;41.75;;;;;5.45;100.00;101935.66;5099874;27;45506;-76
2023/01/26 06:48:28;;;;;;;;;42.75;35.75;;;;;5.46;100.00;101937.34;5099925;27;45248;-76
2023/01/26 06:51:04;;;;;;;;;57.50;44.50;;;;;5.42;100.00;101927.97;5099903;27;45306;-75
2023/01/26 06:53:37;;;;;;;;;51.00;40.75;;;;;5.47;100.00;101930.25;5099747;27;45241;-76
2023/01/26 06:56:02;;;;;;;;;47.25;40.75;;;;;5.43;100.00;101925.22;5099471;27;45338;-76
2023/01/26 06:58:28;;;;;;;;;43.00;38.00;;;;;5.45;100.00;101932.19;5079246;27;45972;-76
2023/01/26 07:00:54;;;;;;;;;55.25;41.00;;;;;5.52;100.00;101939.53;5098371;27;45329;-76
2023/01/26 07:03:20;;;;;;;;;53.00;44.25;;;;;5.50;100.00;101937.94;5092481;27;45374;-76
2023/01/26 07:05:45;;;;;;;;;42.25;38.25;;;;;5.48;100.00;101935.41;5098227;27;45877;-76
2023/01/26 07:08:10;;;;;;;;;48.50;40.50;;;;;5.48;100.00;101939.88;5089163;27;45443;-75
2023/01/26 07:10:37;;;;;;;;;44.25;38.00;;;;;5.49;100.00;101942.41;5098725;27;45415;-76
2023/01/26 07:13:05;;;;;;;;;55.25;42.00;;;;;5.48;100.00;101948.59;5099255;27;45491;-76
2023/01/26 07:15:30;;;;;;;;;44.75;37.75;;;;;5.47;100.00;101946.06;5099372;27;46150;-76
2023/01/26 07:17:56;;;;;;;;;44.50;40.25;;;;;5.42;100.00;101941.16;5099235;27;45321;-75
2023/01/26 07:20:22;;;;;;;;;40.50;38.00;;;;;5.48;100.00;101947.78;5099810;27;45322;-76
2023/01/26 07:22:48;;;;;;;;;42.75;37.25;;;;;5.45;100.00;101946.22;5099404;27;45299;-76
2023/01/26 07:25:14;;;;;;;;;48.50;40.75;;;;;5.47;100.00;101952.19;5099114;27;45326;-76
2023/01/26 07:27:39;;;;;;;;;35.00;32.50;;;;;5.50;100.00;101959.91;5099037;27;45283;-76
2023/01/26 07:30:05;;;;;;;;;50.25;41.75;;;;;5.48;100.00;101963.59;5099509;27;45536;-77
2023/01/26 07:32:31;;;;;;;;;46.25;39.50;;;;;5.53;100.00;101964.09;5080917;27;46308;-75
2023/01/26 07:34:56;;;;;;;;;46.50;40.25;;;;;5.52;100.00;101960.63;5099241;27;46208;-76
2023/01/26 07:37:21;;;;;;;;;46.00;40.25;;;;;5.51;100.00;101963.38;5080900;27;45356;-76
2023/01/26 07:39:47;;;;;;;;;49.25;43.00;;;;;5.52;100.00;101965.06;5099173;27;46411;-76
2023/01/26 07:42:13;;;;;;;;;46.00;38.75;;;;;5.53;100.00;101958.81;5097365;27;45419;-75
2023/01/26 07:44:38;;;;;;;;;47.50;40.00;;;;;5.59;100.00;101955.75;5098823;27;45661;-76
2023/01/26 07:47:04;;;;;;;;;36.50;33.50;;;;;5.59;100.00;101968.13;5098913;27;45454;-76
2023/01/26 07:49:30;;;;;;;;;34.25;33.25;;;;;5.61;100.00;101960.91;5099020;27;45732;-75
2023/01/26 07:51:56;;;;;;;;;36.50;28.75;;;;;5.62;100.00;101974.00;5080853;27;47143;-77
2023/01/26 07:54:21;;;;;;;;;39.25;32.50;;;;;5.64;100.00;101968.59;5080399;27;47270;-77
2023/01/26 07:56:50;;;;;;;;;39.00;30.75;;;;;5.61;100.00;101967.03;5098689;27;45582;-78
2023/01/26 07:59:15;;;;;;;;;37.00;36.00;;;;;5.65;100.00;101973.78;5100811;27;45426;-79
2023/01/26 08:01:41;;;;;;;;;42.25;37.50;;;;;5.60;100.00;101970.59;5099831;27;45360;-79
2023/01/26 08:04:06;;;;;;;;;35.25;31.50;;;;;5.66;100.00;101978.09;5091662;27;48278;-79
2023/01/26 08:06:31;;;;;;;;;42.25;37.50;;;;;5.73;100.00;101975.84;5102379;27;45295;-79
2023/01/26 08:08:57;;;;;;;;;37.25;33.00;;;;;5.71;100.00;101975.13;5080426;27;45531;-79
2023/01/26 08:11:24;;;;;;;;;35.75;34.50;;;;;5.73;100.00;101977.66;5081082;27;46285;-78
2023/01/26 08:13:50;;;;;;;;;43.25;32.00;;;;;5.76;100.00;101973.00;5103406;27;45487;-78
2023/01/26 08:16:16;;;;;;;;;31.25;29.50;;;;;5.78;100.00;101967.63;5086068;27;45352;-79
2023/01/26 08:18:44;;;;;;;;;42.00;34.50;;;;;5.80;100.00;101976.25;5083139;27;45694;-79
2023/01/26 08:21:11;;;;;;;;;34.75;32.00;;;;;5.80;100.00;101968.31;5102123;27;45294;-78
2023/01/26 08:23:36;;;;;;;;;36.00;32.50;;;;;5.87;100.00;101974.00;5102784;27;45470;-79
2023/01/26 08:26:04;;;;;;;;;31.50;26.75;;;;;5.88;100.00;101975.69;5084668;27;45823;-78
2023/01/26 08:28:30;;;;;;;;;32.00;27.00;;;;;5.92;100.00;101983.25;5094745;27;47271;-79
2023/01/26 08:30:56;;;;;;;;;34.50;31.25;;;;;5.98;100.00;101991.69;5085659;27;46235;-79
2023/01/26 08:33:22;;;;;;;;;33.50;29.75;;;;;5.94;100.00;101980.50;5078971;27;48486;-79
2023/01/26 08:35:48;;;;;;;;;32.00;26.50;;;;;5.95;100.00;101990.09;5083779;27;45508;-79
2023/01/26 08:38:13;;;;;;;;;40.25;34.50;;;;;5.98;100.00;101996.97;5102828;27;45652;-79
2023/01/26 08:40:38;;;;;;;;;46.50;39.50;;;;;6.01;100.00;101988.81;5083433;27;47062;-79
2023/01/26 08:43:04;;;;;;;;;43.25;38.00;;;;;6.03;100.00;101986.91;5084930;27;47909;-79
2023/01/26 08:45:29;;;;;;;;;42.75;36.25;;;;;6.08;100.00;101984.81;5084261;27;45678;-78
2023/01/26 08:47:55;;;;;;;;;34.50;28.75;;;;;6.12;100.00;101988.06;5102840;27;45704;-77
2023/01/26 08:50:21;;;;;;;;;33.50;32.00;;;;;6.05;100.00;101979.75;5102249;27;45323;-78
2023/01/26 08:52:46;;;;;;;;;30.00;28.75;;;;;6.15;100.00;101991.31;5104084;27;46184;-79
2023/01/26 08:55:12;;;;;;;;;36.75;25.50;;;;;6.23;100.00;101985.47;5106376;27;45392;-78
2023/01/26 08:57:37;;;;;;;;;25.50;23.50;;;;;6.25;100.00;101990.63;5104791;27;45437;-79
2023/01/26 09:00:03;;;;;;;;;27.75;24.50;;;;;6.26;100.00;101982.56;5087942;27;47307;-79
2023/01/26 09:02:28;;;;;;;;;25.50;24.00;;;;;6.33;100.00;101988.25;5105721;27;47795;-78
2023/01/26 09:04:53;;;;;;;;;26.00;22.00;;;;;6.36;100.00;102005.66;5085212;27;45305;-78
2023/01/26 09:07:19;;;;;;;;;26.50;24.50;;;;;6.35;100.00;101994.28;5102859;27;45431;-78
2023/01/26 09:09:44;;;;;;;;;25.50;25.00;;;;;6.33;100.00;101993.53;5082919;27;46947;-76
2023/01/26 09:12:09;;;;;;;;;28.25;22.50;;;;;6.39;100.00;102006.28;5083698;27;48308;-78
2023/01/26 09:14:35;;;;;;;;;38.25;32.25;;;;;6.44;100.00;102009.41;5101122;27;45398;-78
2023/01/26 09:17:00;;;;;;;;;31.50;28.75;;;;;6.43;100.00;102020.94;5102180;27;45230;-78
2023/01/26 09:19:25;;;;;;;;;32.25;28.75;;;;;6.47;100.00;102021.56;5101247;27;45203;-77
2023/01/26 09:21:52;;;;;;;;;46.25;38.75;;;;;6.45;100.00;102018.19;5083558;27;48294;-78
2023/01/26 09:24:18;;;;;;;;;44.75;38.00;;;;;6.42;100.00;102023.69;5100852;27;45321;-76
2023/01/26 09:26:43;;;;;;;;;39.50;35.75;;;;;6.42;100.00;102028.97;5101042;27;45233;-77
2023/01/26 09:29:08;;;;;;;;;49.75;40.00;;;;;6.38;100.00;102033.63;5082401;27;47018;-77
2023/01/26 09:31:34;;;;;;;;;38.00;34.50;;;;;6.41;100.00;102033.41;5082827;27;47639;-77
2023/01/26 09:33:59;;;;;;;;;38.00;29.25;;;;;6.42;100.00;102037.75;5099562;27;45335;-78
2023/01/26 09:36:25;;;;;;;;;37.75;33.25;;;;;6.41;100.00;102038.69;5101455;27;45474;-78
2023/01/26 09:38:51;;;;;;;;;36.25;31.25;;;;;6.42;100.00;102032.47;5101161;27;45430;-77
2023/01/26 09:41:29;;;;;;;;;27.00;24.00;;;;;6.45;100.00;102044.59;5082773;27;46632;-78
2023/01/26 09:43:58;;;;;;;;;21.67;17.33;;;;;6.43;100.00;102039.44;5082161;27;45263;-78
2023/01/26 09:46:32;;;;;;;;;30.00;23.25;;;;;6.38;100.00;102044.19;5100389;27;45411;-77
2023/01/26 09:49:16;;;;;;;;;25.75;22.50;;;;;6.37;100.00;102045.16;5082380;27;47211;-77
2023/01/26 09:51:46;;;;;;;;;29.00;25.50;;;;;6.36;100.00;102040.00;5082328;27;47406;-77
2023/01/26 09:54:25;;;;;;;;;24.00;24.00;;;;;6.40;100.00;102049.38;5100482;27;45444;-77
2023/01/26 09:56:51;;;;;;;;;34.00;27.25;;;;;6.39;100.00;102032.69;5079175;27;45365;-78
2023/01/26 09:59:44;;;;;;;;;29.25;24.00;;;;;6.46;100.00;102048.91;5081572;27;46856;-78
2023/01/26 10:02:12;;;;;;;;;29.50;25.75;;;;;6.50;100.00;102046.91;5099929;27;45964;-78
2023/01/26 10:04:42;;;;;;;;;36.25;30.00;;;;;6.53;100.00;102049.31;5081716;27;45488;-77
2023/01/26 10:07:14;;;;;;;;;33.75;28.75;;;;;6.47;100.00;102023.34;5099315;27;45319;-78
2023/01/26 10:09:43;;;;;;;;;34.25;26.75;;;;;6.63;100.00;102044.16;5080597;27;46706;-79
2023/01/26 10:12:29;;;;;;;;;35.75;29.00;;;;;6.68;100.00;102052.59;5081206;27;46465;-78
2023/01/26 10:15:03;;;;;;;;;31.75;28.75;;;;;6.70;100.00;102048.03;5081131;27;45994;-78
2023/01/26 10:17:41;;;;;;;;;36.25;32.25;;;;;6.72;100.00;102038.19;5099518;27;45309;-78
2023/01/26 10:20:27;;;;;;;;;33.75;31.25;;;;;6.75;100.00;102045.88;5095916;27;45295;-78
2023/01/26 10:22:58;;;;;;;;;32.25;30.50;;;;;6.77;100.00;102045.78;5088729;27;46362;-78
2023/01/26 10:25:36;;;;;;;;;29.50;27.00;;;;;6.76;100.00;102049.38;5097822;27;46597;-78
2023/01/26 10:28:15;;;;;;;;;33.25;30.00;;;;;6.77;100.00;102049.22;5078206;27;45710;-78
2023/01/26 10:30:42;;;;;;;;;33.75;29.25;;;;;6.70;100.00;102045.38;5099451;27;45547;-79
2023/01/26 10:33:22;;;;;;;;;40.25;29.75;;;;;6.65;100.00;102048.38;5098217;27;45351;-77
2023/01/26 10:35:47;;;;;;;;;34.50;32.75;;;;;6.67;100.00;102045.59;5094841;27;45531;-77
2023/01/26 10:38:31;;;;;;;;;31.00;23.00;;;;;6.70;100.00;102050.66;5080497;27;45678;-78
2023/01/26 10:40:59;;;;;;;;;40.50;35.00;;;;;6.73;100.00;102050.44;5096690;27;45249;-78
2023/01/26 10:43:24;;;;;;;;;37.25;36.75;;;;;6.76;100.00;102044.09;5096939;27;46046;-78
2023/01/26 10:45:50;;;;;;;;;42.75;35.50;;;;;6.76;100.00;102033.53;5080448;27;45505;-79
2023/01/26 10:48:17;;;;;;;;;35.00;34.25;;;;;6.76;100.00;102041.44;5099351;27;45375;-79
2023/01/26 10:50:44;;;;;;;;;35.00;32.25;;;;;6.81;100.00;102048.06;5079403;27;46071;-79
2023/01/26 10:53:22;;;;;;;;;35.00;33.25;;;;;6.89;100.00;102034.22;5098657;27;46566;-79
2023/01/26 10:56:02;;;;;;;;;31.75;28.50;;;;;6.98;100.00;102037.16;5080531;27;45287;-78
2023/01/26 10:58:45;;;;;;;;;35.00;30.00;;;;;6.98;100.00;102047.72;5098705;27;45430;-77
2023/01/26 11:01:31;;;;;;;;;30.25;30.25;;;;;6.95;100.00;102035.59;5099053;27;45394;-79
2023/01/26 11:04:14;;;;;;;;;26.50;25.25;;;;;6.90;100.00;102033.31;5067842;28;47737;-79
2023/01/26 11:06:40;;;;;;;;;33.25;30.50;;;;;6.94;100.00;102042.66;5072839;27;45360;-79
2023/01/26 11:09:18;;;;;;;;;35.00;29.50;;;;;6.86;100.00;102033.66;5100701;27;45504;-79
2023/01/26 11:12:00;;;;;;;;;31.75;30.25;;;;;6.86;100.00;102023.06;5080392;27;45658;-79
2023/01/26 11:14:25;;;;;;;;;20.75;20.25;;;;;6.91;100.00;102026.19;5098635;27;46050;-79
2023/01/26 11:17:13;;;;;;;;;32.75;29.25;;;;;6.90;100.00;102024.50;5098925;27;45432;-79
2023/01/26 11:20:02;;;;;;;;;32.75;30.25;;;;;6.93;100.00;102025.13;5099263;27;45513;-79
2023/01/26 11:23:02;;;;;;;;;30.00;25.50;;;;;6.93;100.00;102019.84;5066915;28;47191;-79
2023/01/26 11:25:39;;;;;;;;;33.00;29.00;;;;;6.93;100.00;102019.84;5085575;27;46263;-79
2023/01/26 11:28:35;;;;;;;;;40.25;33.50;;;;;7.04;100.00;102016.34;5079410;27;45480;-78
2023/01/26 11:31:15;;;;;;;;;36.75;32.50;;;;;7.12;100.00;102014.94;5099312;27;45413;-79
2023/01/26 11:33:49;;;;;;;;;42.75;35.75;;;;;7.16;100.00;102006.63;5080561;27;47346;-79
2023/01/26 11:36:40;;;;;;;;;37.50;34.25;;;;;7.17;100.00;102005.69;5082118;27;48260;-79
2023/01/26 11:39:27;;;;;;;;;40.75;36.00;;;;;7.18;100.00;102002.06;5094734;27;45429;-79
2023/01/26 11:42:11;;;;;;;;;45.50;39.25;;;;;7.24;100.00;102002.56;5092887;27;45228;-79
2023/01/26 11:44:56;;;;;;;;;44.25;37.50;;;;;7.32;100.00;102000.97;5089176;27;45275;-79
2023/01/26 11:47:39;;;;;;;;;37.25;34.00;;;;;7.31;100.00;101996.63;5103078;27;46412;-80
2023/01/26 11:50:15;;;;;;;;;51.50;41.75;;;;;7.37;100.00;101990.03;5104124;27;45388;-79
2023/01/26 11:53:16;;;;;;;;;38.25;31.75;;;;;7.44;100.00;101995.66;5103114;27;45373;-78
2023/01/26 11:56:19;;;;;;;;;44.25;37.00;;;;;7.48;100.00;102001.56;5089335;27;45390;-78
2023/01/26 11:59:00;;;;;;;;;30.50;27.75;;;;;7.43;100.00;101994.00;5029773;27;47399;-78
2023/01/26 12:01:36;;;;;;;;;37.00;32.50;;;;;7.44;100.00;101991.22;5100872;27;45206;-78